Time;durP1;ratioP1;P1;durP2;ratioP2;P2;SDS_P1;SDS_P2;PMS_P1;PMS_P2;Temp;Humidity;BMP_temperature;BMP_pressure;BME280_temperature;BME280_humidity;BME280_pressure;Samples;Min_cycle;Max_cycle;Signal;HPM_P1;HPM_P2
2021/10/03 00:00:15;;;;;;;43.97;27.30;;;;;;;13.06;68.64;100331.00;5030873;28;20084;-76
2021/10/03 00:02:43;;;;;;;39.25;26.67;;;;;;;13.04;68.63;100325.81;5031189;28;20072;-78
2021/10/03 00:05:12;;;;;;;45.97;27.10;;;;;;;13.04;68.64;100323.16;5030506;28;20708;-71
2021/10/03 00:07:40;;;;;;;40.47;24.50;;;;;;;13.02;68.59;100330.41;5035815;28;20111;-77
2021/10/03 00:10:08;;;;;;;46.35;26.75;;;;;;;13.01;68.44;100323.41;5033163;28;20049;-70
2021/10/03 00:12:38;;;;;;;34.25;23.38;;;;;;;13.01;68.51;100323.41;5037335;28;20063;-72
2021/10/03 00:15:10;;;;;;;35.35;25.92;;;;;;;13.02;68.33;100341.00;5028107;28;20052;-71
2021/10/03 00:17:39;;;;;;;34.50;23.95;;;;;;;12.98;68.27;100321.00;5033671;28;20045;-74
2021/10/03 00:20:10;;;;;;;41.60;26.63;;;;;;;12.99;68.49;100325.34;5038497;28;20492;-78
2021/10/03 00:22:38;;;;;;;35.40;24.48;;;;;;;12.99;68.36;100335.94;5042303;28;20069;-72
2021/10/03 00:25:06;;;;;;;44.90;26.77;;;;;;;12.96;68.45;100325.56;5040939;28;20049;-76
2021/10/03 00:27:34;;;;;;;43.20;27.27;;;;;;;12.96;68.28;100325.56;5044691;28;20037;-79
2021/10/03 00:30:04;;;;;;;39.35;25.73;;;;;;;12.93;68.49;100331.97;5007479;28;20034;-73
2021/10/03 00:32:31;;;;;;;36.90;25.73;;;;;;;12.92;68.37;100321.50;5040956;28;20076;-79
2021/10/03 00:34:58;;;;;;;40.13;25.27;;;;;;;12.89;68.36;100327.03;5034974;28;20046;-78
2021/10/03 00:37:25;;;;;;;35.83;23.45;;;;;;;12.89;68.37;100327.03;5038045;28;20429;-73
2021/10/03 00:39:52;;;;;;;42.55;26.25;;;;;;;12.84;68.24;100322.13;5039981;28;20041;-75
2021/10/03 00:42:19;;;;;;;40.10;27.77;;;;;;;12.84;68.28;100323.91;5040648;28;20045;-79
2021/10/03 00:44:46;;;;;;;41.42;26.27;;;;;;;12.80;68.37;100321.53;5039076;28;20050;-82
2021/10/03 00:47:16;;;;;;;42.85;26.67;;;;;;;12.77;68.43;100321.78;5043511;28;20046;-78
2021/10/03 00:49:44;;;;;;;39.03;25.42;;;;;;;12.76;68.35;100320.06;5051684;28;20048;-77
2021/10/03 00:52:12;;;;;;;47.55;29.30;;;;;;;12.72;68.34;100315.16;5042012;28;20087;-79
2021/10/03 00:54:40;;;;;;;47.80;25.55;;;;;;;12.70;68.41;100317.09;5042542;28;20060;-81
2021/10/03 00:57:06;;;;;;;42.60;26.38;;;;;;;12.69;68.47;100318.06;5039521;28;20053;-81
2021/10/03 00:59:34;;;;;;;47.30;27.63;;;;;;;12.67;68.48;100310.22;5036325;28;20049;-76
2021/10/03 01:02:01;;;;;;;48.28;27.00;;;;;;;12.65;68.60;100311.31;5031095;28;20556;-75
2021/10/03 01:04:30;;;;;;;58.03;35.10;;;;;;;12.65;68.62;100311.31;5030878;28;20045;-73
2021/10/03 01:06:57;;;;;;;45.58;30.58;;;;;;;12.62;68.53;100310.59;5031218;28;20050;-79
2021/10/03 01:09:24;;;;;;;44.95;30.13;;;;;;;12.59;68.73;100304.72;5030436;28;20049;-79
2021/10/03 01:11:55;;;;;;;59.17;33.60;;;;;;;12.57;68.77;100309.31;5030693;28;20060;-73
2021/10/03 01:14:22;;;;;;;51.90;27.33;;;;;;;12.57;68.85;100302.19;5029998;28;20049;-76
2021/10/03 01:16:50;;;;;;;52.40;31.05;;;;;;;12.56;69.03;100305.78;5028354;28;20046;-77
2021/10/03 01:19:18;;;;;;;48.75;29.23;;;;;;;12.56;69.08;100307.59;5032501;28;20073;-75
2021/10/03 01:21:48;;;;;;;46.95;28.48;;;;;;;12.57;69.02;100304.00;5031607;28;20056;-73
2021/10/03 01:24:16;;;;;;;48.30;29.40;;;;;;;12.55;68.98;100296.16;5031666;28;20057;-75
2021/10/03 01:26:43;;;;;;;51.47;28.92;;;;;;;12.55;68.97;100296.16;5033761;28;20121;-78
2021/10/03 01:29:10;;;;;;;45.85;28.52;;;;;;;12.55;68.96;100292.66;5030351;28;20212;-72
2021/10/03 01:31:38;;;;;;;40.97;27.30;;;;;;;12.56;69.04;100287.25;5029677;28;20060;-76
2021/10/03 01:34:05;;;;;;;45.10;27.90;;;;;;;12.56;69.16;100297.00;5031988;28;20049;-79
2021/10/03 01:36:32;;;;;;;41.00;28.25;;;;;;;12.54;69.16;100283.88;5030664;28;20046;-72
2021/10/03 01:39:01;;;;;;;46.08;27.08;;;;;;;12.52;69.03;100285.81;5029551;28;20545;-76
2021/10/03 01:41:28;;;;;;;50.50;31.83;;;;;;;12.51;69.17;100277.97;5030532;28;20098;-77
2021/10/03 01:43:55;;;;;;;49.92;32.08;;;;;;;12.49;69.08;100285.22;5035475;28;20045;-78
2021/10/03 01:46:22;;;;;;;48.22;30.15;;;;;;;12.49;69.33;100285.22;5033002;28;20565;-77
2021/10/03 01:48:50;;;;;;;51.20;29.30;;;;;;;12.49;69.25;100285.22;5029113;28;20616;-77
2021/10/03 01:51:18;;;;;;;48.55;29.52;;;;;;;12.48;69.28;100275.56;5029845;28;20056;-84
2021/10/03 01:53:49;;;;;;;55.58;29.45;;;;;;;12.48;69.33;100280.88;5034344;28;20373;-73
2021/10/03 01:56:19;;;;;;;51.00;26.40;;;;;;;12.48;69.24;100276.44;5030071;28;20045;-78
2021/10/03 01:58:49;;;;;;;43.92;27.65;;;;;;;12.48;69.28;100281.72;5030204;28;20068;-75
2021/10/03 02:01:19;;;;;;;49.85;27.88;;;;;;;12.47;69.21;100276.56;5030373;28;20067;-78
2021/10/03 02:03:46;;;;;;;50.55;29.77;;;;;;;12.43;69.23;100284.72;5029916;28;20115;-73
2021/10/03 02:06:14;;;;;;;39.50;26.40;;;;;;;12.40;69.25;100276.19;5028920;28;20692;-77
2021/10/03 02:08:41;;;;;;;47.60;27.00;;;;;;;12.37;69.31;100277.28;5030225;28;20049;-78
2021/10/03 02:11:08;;;;;;;47.47;27.00;;;;;;;12.36;69.23;100275.59;5029631;28;20045;-77
2021/10/03 02:13:37;;;;;;;43.88;27.63;;;;;;;12.35;69.31;100279.22;5029745;28;20099;-77
2021/10/03 02:16:04;;;;;;;51.65;28.10;;;;;;;12.35;69.17;100275.72;5029417;28;20397;-78
2021/10/03 02:18:36;;;;;;;41.30;27.48;;;;;;;12.34;69.21;100285.47;5027377;28;20056;-76
2021/10/03 02:21:04;;;;;;;50.97;28.30;;;;;;;12.33;69.27;100275.00;5028430;28;20128;-74
2021/10/03 02:23:32;;;;;;;48.53;28.23;;;;;;;12.28;69.21;100272.72;5029680;28;20164;-79
2021/10/03 02:25:59;;;;;;;47.78;28.40;;;;;;;12.27;69.15;100278.13;5032219;28;20058;-83
2021/10/03 02:28:28;;;;;;;48.25;26.80;;;;;;;12.22;69.32;100276.69;5031865;28;20050;-83
2021/10/03 02:30:59;;;;;;;47.70;28.90;;;;;;;12.21;69.29;100282.94;5031685;28;20053;-80
2021/10/03 02:33:26;;;;;;;43.75;29.05;;;;;;;12.16;69.73;100276.34;5032627;28;20057;-80
2021/10/03 02:35:54;;;;;;;55.28;31.15;;;;;;;12.13;69.50;100284.50;5031890;28;20049;-80
2021/10/03 02:38:23;;;;;;;44.00;26.80;;;;;;;12.12;69.56;100282.81;5031657;28;20048;-77
2021/10/03 02:40:53;;;;;;;48.75;27.42;;;;;;;12.10;69.46;100282.97;5031992;28;20052;-80
2021/10/03 02:43:21;;;;;;;46.28;27.63;;;;;;;12.07;69.35;100272.59;5029865;28;20133;-79
2021/10/03 02:45:50;;;;;;;45.88;27.20;;;;;;;12.04;69.53;100284.25;5027841;28;20056;-71
2021/10/03 02:48:20;;;;;;;45.70;25.88;;;;;;;12.03;69.54;100284.41;5026200;28;20056;-76
2021/10/03 02:50:48;;;;;;;50.58;28.08;;;;;;;11.99;69.52;100286.44;5028590;28;20053;-68
2021/10/03 02:53:16;;;;;;;44.33;27.48;;;;;;;11.98;69.50;100284.75;5027972;28;20133;-75
2021/10/03 02:55:43;;;;;;;44.90;26.45;;;;;;;11.94;69.43;100279.81;5028041;28;20052;-74
2021/10/03 02:58:10;;;;;;;45.75;27.30;;;;;;;11.92;69.35;100276.44;5028885;28;20057;-70
2021/10/03 03:00:38;;;;;;;44.60;27.50;;;;;;;11.88;69.52;100275.81;5028579;28;20053;-76
2021/10/03 03:03:06;;;;;;;48.33;26.40;;;;;;;11.88;69.52;100274.97;5027821;28;20608;-73
2021/10/03 03:05:34;;;;;;;41.08;23.58;;;;;;;11.85;69.43;100282.19;5026472;28;20653;-78
2021/10/03 03:08:01;;;;;;;42.80;27.90;;;;;;;11.82;69.42;100281.59;5029404;28;20041;-77
2021/10/03 03:10:29;;;;;;;42.83;27.88;;;;;;;11.82;69.50;100273.66;5029342;28;20489;-71
2021/10/03 03:12:56;;;;;;;46.70;29.35;;;;;;;11.80;69.46;100275.56;5029993;28;20686;-70
2021/10/03 03:15:23;;;;;;;44.53;28.23;;;;;;;11.78;69.41;100280.97;5029899;28;20076;-79
2021/10/03 03:17:50;;;;;;;47.83;29.67;;;;;;;11.76;69.67;100285.56;5030461;28;20041;-71
2021/10/03 03:20:17;;;;;;;48.53;28.65;;;;;;;11.75;69.52;100296.25;5032767;28;20072;-79
2021/10/03 03:22:46;;;;;;;47.30;27.83;;;;;;;11.77;69.49;100289.88;5031467;28;20045;-69
2021/10/03 03:25:15;;;;;;;47.03;28.67;;;;;;;11.76;69.31;100287.34;5029793;28;20053;-69
2021/10/03 03:27:43;;;;;;;43.25;24.88;;;;;;;11.74;69.44;100290.13;5028850;28;20046;-70
2021/10/03 03:30:13;;;;;;;43.10;28.02;;;;;;;11.74;69.16;100284.81;5029117;28;20054;-71
2021/10/03 03:32:40;;;;;;;43.40;24.83;;;;;;;11.72;69.26;100291.19;5028777;28;20045;-77
2021/10/03 03:35:09;;;;;;;46.88;26.38;;;;;;;11.72;69.22;100291.19;5028793;28;20060;-70
2021/10/03 03:37:36;;;;;;;40.35;26.48;;;;;;;11.70;68.95;100293.94;5029827;28;20041;-77
2021/10/03 03:40:07;;;;;;;47.53;27.05;;;;;;;11.69;69.10;100280.84;5028219;28;20049;-72
2021/10/03 03:42:34;;;;;;;40.00;26.65;;;;;;;11.64;69.03;100271.44;5029714;28;20050;-79
2021/10/03 03:45:01;;;;;;;46.50;27.35;;;;;;;11.60;69.18;100271.81;5030345;28;20053;-78
2021/10/03 03:47:28;;;;;;;47.13;29.45;;;;;;;11.58;69.08;100271.09;5029072;28;20049;-79
2021/10/03 03:49:55;;;;;;;39.40;25.58;;;;;;;11.55;69.17;100274.78;5030914;28;20045;-81
2021/10/03 03:52:22;;;;;;;49.45;27.88;;;;;;;11.52;69.36;100272.38;5029649;28;20072;-79
2021/10/03 03:54:49;;;;;;;51.88;27.90;;;;;;;11.51;69.26;100273.34;5029994;28;20427;-82
2021/10/03 03:57:17;;;;;;;45.22;25.45;;;;;;;11.50;69.40;100270.81;5028970;28;20046;-73
2021/10/03 03:59:44;;;;;;;40.78;24.15;;;;;;;11.50;69.13;100271.66;5030996;28;20047;-82
2021/10/03 04:02:12;;;;;;;44.03;25.67;;;;;;;11.46;69.25;100276.34;5029582;28;20065;-74
2021/10/03 04:04:39;;;;;;;47.20;27.42;;;;;;;11.46;69.21;100271.03;5029446;28;20532;-78
2021/10/03 04:07:06;;;;;;;50.20;27.33;;;;;;;11.45;69.22;100268.50;5034489;28;20053;-79
2021/10/03 04:09:34;;;;;;;46.17;27.80;;;;;;;11.44;69.20;100266.84;5030428;28;20046;-78
2021/10/03 04:12:02;;;;;;;56.65;31.30;;;;;;;11.42;69.28;100258.19;5029363;28;20045;-79
2021/10/03 04:14:33;;;;;;;54.85;31.92;;;;;;;11.41;69.50;100261.78;5030694;28;20409;-80
2021/10/03 04:17:00;;;;;;;43.67;27.55;;;;;;;11.41;69.28;100257.31;5030290;28;20069;-75
2021/10/03 04:19:27;;;;;;;45.03;25.92;;;;;;;11.41;69.46;100256.50;5032820;28;20068;-75
2021/10/03 04:21:54;;;;;;;45.25;27.95;;;;;;;11.39;69.51;100258.41;5033125;28;20049;-73
2021/10/03 04:24:21;;;;;;;45.75;27.83;;;;;;;11.37;69.49;100260.34;5032297;28;20075;-80
2021/10/03 04:26:47;;;;;;;41.05;26.63;;;;;;;11.37;69.46;100260.34;5031238;28;20060;-75
2021/10/03 04:29:14;;;;;;;46.42;28.40;;;;;;;11.37;69.43;100260.34;5030869;28;20052;-77
2021/10/03 04:31:43;;;;;;;45.13;28.00;;;;;;;11.38;69.41;100257.56;5031672;28;20056;-75
2021/10/03 04:34:10;;;;;;;42.47;26.08;;;;;;;11.39;69.56;100253.13;5036923;28;20065;-77
2021/10/03 04:36:37;;;;;;;46.75;26.13;;;;;;;11.40;69.28;100260.13;5048059;28;20053;-76
2021/10/03 04:39:05;;;;;;;44.65;25.50;;;;;;;11.40;69.18;100265.41;5045407;28;20481;-77
2021/10/03 04:41:32;;;;;;;45.05;25.58;;;;;;;11.41;69.21;100261.78;5049978;28;20033;-79
2021/10/03 04:43:59;;;;;;;40.95;26.20;;;;;;;11.40;69.16;100275.97;5049642;28;20038;-80
2021/10/03 04:46:26;;;;;;;37.75;24.35;;;;;;;11.42;69.19;100276.69;5046852;28;20051;-75
2021/10/03 04:48:55;;;;;;;44.08;26.92;;;;;;;11.41;68.99;100283.78;5039257;28;20053;-78
2021/10/03 04:51:22;;;;;;;41.13;24.10;;;;;;;11.41;69.00;100277.66;5035310;28;20057;-83
2021/10/03 04:53:51;;;;;;;42.83;26.00;;;;;;;11.42;68.86;100279.34;5032662;28;20045;-74
2021/10/03 04:56:18;;;;;;;39.78;24.88;;;;;;;11.44;68.73;100280.06;5033264;28;20050;-78
2021/10/03 04:58:45;;;;;;;39.33;24.80;;;;;;;11.47;68.68;100282.50;5027702;28;20042;-74
2021/10/03 05:01:14;;;;;;;41.00;25.23;;;;;;;11.50;68.66;100279.59;5027319;28;20137;-76
2021/10/03 05:03:41;;;;;;;43.30;25.02;;;;;;;11.51;68.64;100278.66;5025582;28;20199;-79
2021/10/03 05:06:10;;;;;;;38.35;25.10;;;;;;;11.51;68.67;100269.88;5026337;28;20516;-75
2021/10/03 05:08:40;;;;;;;41.15;25.42;;;;;;;11.54;68.60;100272.25;5027102;28;20782;-77
2021/10/03 05:11:11;;;;;;;42.08;26.02;;;;;;;11.58;68.54;100277.22;5029275;28;20049;-74
2021/10/03 05:13:38;;;;;;;44.45;26.65;;;;;;;11.62;68.27;100275.19;5026402;28;20397;-78
2021/10/03 05:16:06;;;;;;;38.30;25.77;;;;;;;11.62;68.25;100276.00;5022219;28;20041;-78
2021/10/03 05:18:36;;;;;;;36.72;24.10;;;;;;;11.70;68.16;100277.22;5020226;28;20049;-75
2021/10/03 05:21:04;;;;;;;38.53;25.08;;;;;;;11.75;68.03;100272.44;5027652;28;20134;-74
2021/10/03 05:23:34;;;;;;;46.38;28.38;;;;;;;11.77;68.03;100271.34;5028226;28;20046;-73
2021/10/03 05:26:02;;;;;;;41.35;25.85;;;;;;;11.78;68.21;100267.75;5027838;28;20052;-73
2021/10/03 05:28:29;;;;;;;44.47;27.73;;;;;;;11.83;68.10;100259.47;5027921;28;20045;-71
2021/10/03 05:30:57;;;;;;;41.38;25.80;;;;;;;11.88;67.99;100273.16;4992640;28;20049;-72
2021/10/03 05:33:25;;;;;;;39.78;26.48;;;;;;;11.97;67.83;100269.81;5026991;28;20042;-72
2021/10/03 05:35:52;;;;;;;38.63;24.60;;;;;;;12.04;67.75;100264.91;5027364;28;20056;-72
2021/10/03 05:38:19;;;;;;;39.63;26.67;;;;;;;12.13;67.51;100268.63;5028018;28;20079;-70
2021/10/03 05:40:49;;;;;;;38.22;26.92;;;;;;;12.19;67.62;100270.78;5028443;28;20153;-76
2021/10/03 05:43:18;;;;;;;40.45;25.48;;;;;;;12.30;67.46;100273.44;5028569;28;20042;-75
2021/10/03 05:45:46;;;;;;;36.22;25.75;;;;;;;12.38;67.27;100281.59;5028842;28;20060;-75
2021/10/03 05:48:12;;;;;;;36.08;24.48;;;;;;;12.46;66.99;100277.50;5029594;28;20073;-82
2021/10/03 05:50:40;;;;;;;36.30;24.17;;;;;;;12.54;66.91;100278.56;5028338;28;20041;-74
2021/10/03 05:53:08;;;;;;;33.72;23.77;;;;;;;12.66;66.91;100266.16;5027213;28;20161;-73
2021/10/03 05:55:38;;;;;;;36.08;23.25;;;;;;;12.79;66.50;100260.69;5028601;28;20054;-81
2021/10/03 05:58:07;;;;;;;30.98;22.00;;;;;;;12.93;66.20;100263.06;5027524;28;20060;-80
2021/10/03 06:00:35;;;;;;;32.85;22.73;;;;;;;13.07;66.01;100258.41;5029514;28;20046;-76
2021/10/03 06:03:02;;;;;;;32.28;22.48;;;;;;;13.15;65.81;100261.28;5027561;28;20076;-74
2021/10/03 06:05:31;;;;;;;35.13;22.30;;;;;;;13.23;65.64;100269.44;5026891;28;20061;-73
2021/10/03 06:08:00;;;;;;;29.00;20.98;;;;;;;13.36;65.59;100269.25;5019782;28;20050;-72
2021/10/03 06:10:36;;;;;;;32.30;21.98;;;;;;;13.46;65.41;100275.50;5021134;28;20049;-74
2021/10/03 06:13:04;;;;;;;28.65;20.30;;;;;;;13.53;65.20;100276.66;5016918;28;20088;-72
2021/10/03 06:15:33;;;;;;;28.23;20.52;;;;;;;13.65;65.07;100268.63;5022878;28;20080;-76
2021/10/03 06:18:01;;;;;;;28.70;19.55;;;;;;;13.73;64.69;100272.31;5021712;28;20046;-72
2021/10/03 06:20:29;;;;;;;28.35;20.38;;;;;;;13.74;64.89;100268.69;5016449;28;20556;-71
2021/10/03 06:22:57;;;;;;;26.98;19.52;;;;;;;13.76;64.87;100271.22;5018806;28;20152;-77
2021/10/03 06:25:24;;;;;;;33.15;21.02;;;;;;;13.85;64.74;100278.38;5019668;28;20053;-71
2021/10/03 06:27:51;;;;;;;26.85;19.25;;;;;;;13.89;64.69;100269.19;5019180;28;20042;-74
2021/10/03 06:30:18;;;;;;;27.17;21.88;;;;;;;13.89;64.39;100271.84;5018592;28;20053;-74
2021/10/03 06:32:47;;;;;;;28.58;20.90;;;;;;;13.92;64.58;100273.41;5025653;28;20133;-74
2021/10/03 06:35:14;;;;;;;23.52;17.67;;;;;;;13.93;64.64;100272.41;5020210;28;20125;-74
2021/10/03 06:37:41;;;;;;;27.80;20.15;;;;;;;13.96;64.56;100278.28;5022063;28;20393;-70
2021/10/03 06:40:09;;;;;;;24.70;18.98;;;;;;;13.99;64.45;100271.03;5021557;28;20052;-72
2021/10/03 06:42:36;;;;;;;24.70;18.25;;;;;;;14.05;64.34;100276.66;5022382;28;20042;-71
2021/10/03 06:45:04;;;;;;;25.05;19.00;;;;;;;14.18;64.16;100278.25;5021209;28;20061;-82
2021/10/03 06:47:31;;;;;;;23.60;18.33;;;;;;;14.29;63.99;100284.28;5023687;28;20057;-82
2021/10/03 06:49:59;;;;;;;26.95;17.85;;;;;;;14.41;63.85;100278.91;5016119;28;20041;-79
2021/10/03 06:52:26;;;;;;;21.50;17.08;;;;;;;14.51;63.57;100293.03;5018503;28;20049;-79
2021/10/03 06:54:53;;;;;;;22.85;17.92;;;;;;;14.61;63.41;100278.00;5020880;28;20141;-80
2021/10/03 06:57:20;;;;;;;27.05;18.92;;;;;;;14.65;63.33;100284.72;5023452;28;20045;-79
2021/10/03 06:59:47;;;;;;;25.52;18.20;;;;;;;14.71;63.22;100284.19;5023633;28;20053;-77
2021/10/03 07:02:23;;;;;;;22.90;17.70;;;;;;;14.81;63.21;100283.34;5020242;28;20057;-74
2021/10/03 07:04:50;;;;;;;31.15;21.02;;;;;;;14.95;62.79;100280.28;5016448;28;20456;-78
2021/10/03 07:07:18;;;;;;;24.75;17.23;;;;;;;15.04;62.77;100273.28;5021998;28;20053;-81
2021/10/03 07:09:45;;;;;;;22.48;16.15;;;;;;;15.10;62.43;100273.56;5034267;28;20132;-83
2021/10/03 07:12:13;;;;;;;22.88;15.60;;;;;;;15.15;62.30;100282.97;5027633;28;20060;-73
2021/10/03 07:14:42;;;;;;;23.90;16.63;;;;;;;15.25;62.03;100281.09;5009467;28;20046;-73
2021/10/03 07:17:09;;;;;;;22.85;16.98;;;;;;;15.38;61.79;100284.34;5006708;28;20100;-81
2021/10/03 07:19:38;;;;;;;20.23;15.68;;;;;;;15.43;61.39;100278.56;5016836;28;20050;-81
2021/10/03 07:22:05;;;;;;;20.98;16.45;;;;;;;15.52;61.23;100279.53;5011056;28;20056;-78
2021/10/03 07:24:33;;;;;;;23.45;15.27;;;;;;;15.51;61.26;100278.72;5010312;28;20050;-74
2021/10/03 07:27:00;;;;;;;21.33;15.32;;;;;;;15.51;61.23;100280.56;5009440;28;20057;-84
2021/10/03 07:29:28;;;;;;;20.67;16.02;;;;;;;15.59;60.97;100278.00;4986334;28;20077;-75
2021/10/03 07:31:54;;;;;;;18.50;14.13;;;;;;;15.68;60.59;100282.47;5002641;28;20066;-76
2021/10/03 07:34:21;;;;;;;19.63;15.43;;;;;;;15.79;60.35;100281.47;5005826;28;20070;-75
2021/10/03 07:36:48;;;;;;;20.70;13.63;;;;;;;15.88;60.12;100283.28;5019914;28;20127;-76
2021/10/03 07:39:15;;;;;;;20.85;15.52;;;;;;;15.94;60.02;100277.38;5018869;28;20118;-74
2021/10/03 07:41:47;;;;;;;19.40;13.38;;;;;;;16.09;59.90;100275.06;5028100;28;20041;-77
2021/10/03 07:44:14;;;;;;;19.60;15.00;;;;;;;16.20;59.27;100280.22;5018663;28;20115;-74
2021/10/03 07:46:41;;;;;;;19.58;13.98;;;;;;;16.38;59.19;100274.09;5015399;28;20045;-76
2021/10/03 07:49:08;;;;;;;22.00;14.82;;;;;;;16.48;58.87;100269.56;5015805;28;20624;-77
2021/10/03 07:51:35;;;;;;;22.83;15.38;;;;;;;16.53;58.75;100277.97;5016655;28;20049;-77
2021/10/03 07:54:02;;;;;;;23.30;14.75;;;;;;;16.56;58.68;100274.97;5015722;28;20404;-74
2021/10/03 07:56:30;;;;;;;20.77;14.60;;;;;;;16.68;58.60;100280.94;5014735;28;20065;-77
2021/10/03 07:58:58;;;;;;;18.90;13.63;;;;;;;16.82;58.20;100282.28;5004148;28;20105;-76
2021/10/03 08:01:25;;;;;;;18.10;15.38;;;;;;;16.98;57.81;100282.47;5003640;28;20391;-75
2021/10/03 08:03:52;;;;;;;17.95;13.07;;;;;;;17.16;57.27;100269.13;5006793;28;20148;-78
2021/10/03 08:06:19;;;;;;;17.60;13.15;;;;;;;17.33;56.90;100274.59;5024083;28;20053;-78
2021/10/03 08:08:46;;;;;;;17.60;13.02;;;;;;;17.41;56.76;100268.47;5026090;28;20128;-73
2021/10/03 08:11:13;;;;;;;18.73;15.35;;;;;;;17.48;56.29;100267.69;5025205;28;20045;-72
2021/10/03 08:13:40;;;;;;;14.25;11.75;;;;;;;17.66;55.88;100267.63;5027446;28;20056;-81
2021/10/03 08:16:10;;;;;;;18.52;12.98;;;;;;;17.94;55.61;100259.50;5031304;28;20053;-78
2021/10/03 08:18:39;;;;;;;17.23;12.73;;;;;;;18.21;55.02;100271.81;5034849;28;20103;-81
2021/10/03 08:21:07;;;;;;;26.30;13.80;;;;;;;18.48;54.30;100256.56;5028315;28;20058;-75
2021/10/03 08:23:34;;;;;;;16.92;12.18;;;;;;;18.72;53.96;100261.94;5028651;28;20053;-75
2021/10/03 08:26:01;;;;;;;15.88;13.35;;;;;;;19.02;53.03;100256.19;5024826;28;20046;-73
2021/10/03 08:28:30;;;;;;;18.40;12.50;;;;;;;19.00;52.75;100253.66;5024198;28;20049;-74
2021/10/03 08:31:00;;;;;;;17.20;13.07;;;;;;;18.87;52.38;100246.13;5019002;28;20034;-73
2021/10/03 08:33:29;;;;;;;16.05;12.43;;;;;;;19.01;52.64;100255.31;5021490;28;20478;-74
2021/10/03 08:35:56;;;;;;;16.08;13.38;;;;;;;19.19;51.92;100249.81;5019439;28;20049;-73
2021/10/03 08:38:23;;;;;;;17.23;12.38;;;;;;;19.30;52.41;100251.31;5024562;28;20440;-78
2021/10/03 08:40:51;;;;;;;18.40;14.23;;;;;;;19.53;51.71;100248.78;5018069;28;20042;-76
2021/10/03 08:43:20;;;;;;;21.80;15.35;;;;;;;19.54;51.95;100250.47;5025572;28;20041;-78
2021/10/03 08:45:51;;;;;;;20.95;12.35;;;;;;;19.54;51.86;100250.47;5027835;28;20060;-75
2021/10/03 08:48:18;;;;;;;16.65;12.60;;;;;;;19.49;52.17;100248.28;5017029;28;20084;-72
2021/10/03 08:50:48;;;;;;;16.88;14.25;;;;;;;19.53;51.94;100246.13;5024614;28;20046;-76
2021/10/03 08:53:16;;;;;;;20.02;13.88;;;;;;;19.53;51.66;100247.97;5018477;28;20125;-73
2021/10/03 08:55:43;;;;;;;17.70;14.27;;;;;;;19.54;51.83;100247.78;5025075;28;20049;-72
2021/10/03 08:58:13;;;;;;;18.35;11.93;;;;;;;19.63;51.25;100243.25;5023946;28;20056;-75
2021/10/03 09:00:48;;;;;;;14.60;12.77;;;;;;;19.73;51.40;100240.38;5026261;28;20049;-72
2021/10/03 09:03:17;;;;;;;17.17;11.98;;;;;;;19.97;50.59;100242.19;5029833;28;20041;-75
2021/10/03 09:05:51;;;;;;;14.90;12.13;;;;;;;20.07;51.04;100236.63;5027356;28;20077;-76
2021/10/03 09:08:20;;;;;;;14.73;12.48;;;;;;;20.27;50.50;100232.50;5010665;28;20096;-73
2021/10/03 09:10:54;;;;;;;15.43;12.68;;;;;;;20.53;50.07;100234.06;5004531;28;20152;-74
2021/10/03 09:13:23;;;;;;;17.60;12.25;;;;;;;20.50;49.36;100232.56;5015358;28;20131;-74
2021/10/03 09:16:09;;;;;;;16.05;11.57;;;;;;;20.58;49.26;100224.47;5041201;28;20063;-74
2021/10/03 09:18:53;;;;;;;16.63;11.05;;;;;;;20.70;48.93;100216.88;5036241;28;20041;-77
2021/10/03 09:21:40;;;;;;;14.25;11.18;;;;;;;20.84;49.14;100222.50;5046099;28;20053;-77
2021/10/03 09:24:10;;;;;;;15.93;11.57;;;;;;;20.76;48.50;100218.00;5037525;28;20058;-76
2021/10/03 09:26:38;;;;;;;14.15;11.32;;;;;;;20.74;48.98;100218.22;5028086;28;20065;-76
2021/10/03 09:29:23;;;;;;;16.67;12.00;;;;;;;21.02;48.28;100223.03;5028433;28;20045;-75
2021/10/03 09:32:06;;;;;;;16.27;12.40;;;;;;;21.18;47.39;100214.00;5031797;28;20059;-76
2021/10/03 09:34:33;;;;;;;16.58;11.05;;;;;;;21.18;47.21;100211.31;5023965;28;20670;-75
2021/10/03 09:40:08;;;;;;;17.40;11.73;;;;;;;21.05;47.54;100195.81;5100875;27;20395;-75
2021/10/03 09:42:39;;;;;;;16.83;12.98;;;;;;;21.07;46.47;100199.16;5083811;28;20055;-78
2021/10/03 09:45:08;;;;;;;14.02;10.65;;;;;;;21.09;46.89;100193.59;5087597;28;20619;-77
2021/10/03 09:47:38;;;;;;;18.42;12.55;;;;;;;20.92;46.64;100199.13;5086337;28;20047;-77
2021/10/03 09:50:07;;;;;;;13.98;12.45;;;;;;;21.00;47.07;100198.19;5085969;27;20064;-78
2021/10/03 09:52:35;;;;;;;14.57;11.18;;;;;;;21.16;46.56;100191.84;5080170;28;20040;-76
2021/10/03 09:55:08;;;;;;;14.60;11.40;;;;;;;21.26;46.70;100187.03;5081420;28;20052;-79
2021/10/03 09:57:37;;;;;;;14.13;9.90;;;;;;;21.40;46.27;100190.78;5094469;28;20853;-75
2021/10/03 10:00:06;;;;;;;16.13;10.73;;;;;;;21.27;46.58;100198.66;5099033;28;20048;-77
2021/10/03 10:02:33;;;;;;;15.18;11.57;;;;;;;21.27;46.06;100190.59;5091143;28;20047;-81
2021/10/03 10:05:03;;;;;;;27.85;21.50;;;;;;;21.11;46.65;100183.50;5108343;28;20050;-80
2021/10/03 10:07:32;;;;;;;17.27;13.75;;;;;;;21.06;46.30;100175.97;5105902;28;20044;-77
2021/10/03 10:10:00;;;;;;;12.82;11.43;;;;;;;20.92;46.67;100168.72;5127938;28;20027;-78
2021/10/03 10:12:34;;;;;;;11.35;9.93;;;;;;;20.81;47.16;100168.16;5130809;28;20058;-78
2021/10/03 10:15:10;;;;;;;14.38;11.57;;;;;;;21.00;47.12;100180.22;5125440;28;20031;-76
2021/10/03 10:17:38;;;;;;;15.55;10.57;;;;;;;21.13;46.38;100174.25;5125590;28;20051;-75
2021/10/03 10:20:36;;;;;;;14.75;10.75;;;;;;;21.35;45.98;100183.25;5129823;28;20069;-79
2021/10/03 10:23:06;;;;;;;11.88;9.77;;;;;;;21.36;45.40;100170.69;5099903;28;20147;-76
2021/10/03 10:25:45;;;;;;;16.15;10.57;;;;;;;21.40;46.05;100174.66;5099190;28;20044;-77
2021/10/03 10:28:23;;;;;;;11.63;9.95;;;;;;;21.42;46.04;100175.31;5101148;28;20060;-75
2021/10/03 10:31:08;;;;;;;15.18;9.55;;;;;;;21.46;45.96;100187.38;5121166;28;20028;-79
2021/10/03 10:33:50;;;;;;;;;;;;;;;21.70;45.47;100182.78;5122595;28;20048;-80
2021/10/03 10:36:19;;;;;;;18.42;9.57;;;;;;;21.55;45.85;100178.22;5107361;28;19907;-80
2021/10/03 10:39:17;;;;;;;16.35;9.80;;;;;;;21.72;45.43;100180.72;5120259;28;20111;-78
2021/10/03 10:41:47;;;;;;;14.05;9.75;;;;;;;21.72;45.52;100178.03;5120672;28;20053;-80
2021/10/03 10:44:35;;;;;;;15.32;10.30;;;;;;;21.83;45.39;100176.75;5120092;28;20095;-81
2021/10/03 10:47:08;;;;;;;13.65;9.65;;;;;;;21.94;44.72;100174.41;5122001;28;20076;-80
2021/10/03 10:49:38;;;;;;;15.00;11.07;;;;;;;21.99;44.81;100171.16;5115998;28;20040;-79
2021/10/03 10:52:33;;;;;;;16.00;11.52;;;;;;;21.80;45.01;100158.28;5108404;28;20054;-75
2021/10/03 10:55:37;;;;;;;13.13;10.00;;;;;;;21.73;45.36;100160.88;5111819;28;20046;-79
2021/10/03 10:58:25;;;;;;;12.32;10.10;;;;;;;21.72;45.01;100164.59;5111980;28;20077;-68
2021/10/03 11:01:05;;;;;;;15.98;10.25;;;;;;;21.64;45.62;100156.63;5092685;28;20050;-71
2021/10/03 11:04:03;;;;;;;13.07;10.57;;;;;;;21.67;45.28;100156.25;5091453;28;20044;-67
2021/10/03 11:07:01;;;;;;;13.73;11.00;;;;;;;21.74;44.96;100158.00;5091019;28;20079;-73
2021/10/03 11:09:29;;;;;;;16.35;10.55;;;;;;;21.70;44.59;100155.91;5086142;28;20051;-69
2021/10/03 11:11:59;;;;;;;12.80;8.70;;;;;;;21.73;44.93;100155.50;5083833;28;20791;-67
2021/10/03 11:14:29;;;;;;;11.93;9.88;;;;;;;21.67;44.88;100142.81;5103612;28;20063;-70
2021/10/03 11:17:06;;;;;;;10.13;9.02;;;;;;;21.57;45.66;100146.63;5098697;28;20051;-69
2021/10/03 11:19:36;;;;;;;12.48;9.48;;;;;;;21.54;45.35;100146.16;5101051;28;20052;-68
2021/10/03 11:22:07;;;;;;;10.93;8.38;;;;;;;21.67;45.26;100146.34;5103388;28;20048;-71